Time;durP1;ratioP1;P1;durP2;ratioP2;P2;SDS_P1;SDS_P2;PMS_P1;PMS_P2;Temp;Humidity;BMP_temperature;BMP_pressure;BME280_temperature;BME280_humidity;BME280_pressure;Samples;Min_cycle;Max_cycle;Signal;HPM_P1;HPM_P2
2021/05/17 00:00:51;;;;;;;16.05;7.80;;;9.60;99.90;;;;;;5001260;28;20066;-62
2021/05/17 00:03:18;;;;;;;13.32;6.47;;;9.50;99.90;;;;;;5006947;28;20100;-62
2021/05/17 00:05:45;;;;;;;17.08;6.35;;;9.50;99.90;;;;;;5006641;28;20050;-62
2021/05/17 00:08:11;;;;;;;12.57;6.43;;;9.50;99.90;;;;;;5007202;28;20069;-63
2021/05/17 00:10:37;;;;;;;17.60;6.95;;;9.40;99.90;;;;;;5007278;28;20441;-62
2021/05/17 00:13:04;;;;;;;19.67;7.53;;;9.40;99.90;;;;;;5007081;28;20053;-62
2021/05/17 00:15:30;;;;;;;13.93;6.13;;;9.30;99.90;;;;;;5006395;28;20070;-62
2021/05/17 00:17:56;;;;;;;16.90;6.90;;;9.30;99.90;;;;;;5007072;28;20047;-62
2021/05/17 00:20:26;;;;;;;14.88;6.53;;;9.20;99.90;;;;;;5006674;28;20085;-63
2021/05/17 00:22:53;;;;;;;13.18;5.95;;;9.10;99.90;;;;;;5007253;28;20050;-63
2021/05/17 00:25:23;;;;;;;14.50;6.50;;;9.20;99.90;;;;;;5005886;28;20046;-63
2021/05/17 00:27:53;;;;;;;8.77;5.13;;;9.20;99.90;;;;;;5005024;28;20085;-63
2021/05/17 00:30:21;;;;;;;14.93;6.25;;;9.20;99.90;;;;;;5006906;28;20104;-62
2021/05/17 00:32:48;;;;;;;14.88;6.10;;;9.10;99.90;;;;;;5006875;28;20043;-63
2021/05/17 00:35:15;;;;;;;14.77;5.53;;;9.10;99.90;;;;;;5006490;28;20042;-62
2021/05/17 00:37:42;;;;;;;12.48;6.63;;;9.00;99.90;;;;;;5012031;28;20050;-63
2021/05/17 00:40:09;;;;;;;13.27;7.10;;;8.90;99.90;;;;;;5006202;28;20468;-62
2021/05/17 00:42:36;;;;;;;10.93;5.72;;;9.00;99.90;;;;;;5006789;28;20085;-63
2021/05/17 00:45:05;;;;;;;17.08;6.65;;;9.00;99.90;;;;;;5006433;28;20058;-62
2021/05/17 00:47:36;;;;;;;17.42;7.28;;;8.90;99.90;;;;;;5003608;28;20074;-63
2021/05/17 00:50:03;;;;;;;12.55;6.15;;;8.80;99.90;;;;;;5006633;28;20047;-63
2021/05/17 00:52:29;;;;;;;12.77;6.13;;;8.70;99.90;;;;;;5007072;28;20046;-63
2021/05/17 00:54:55;;;;;;;14.30;7.72;;;8.70;99.90;;;;;;5005750;28;20050;-63
2021/05/17 00:57:21;;;;;;;14.25;5.97;;;8.70;99.90;;;;;;4993812;28;20058;-62
2021/05/17 00:59:47;;;;;;;14.45;6.30;;;8.60;99.90;;;;;;5006186;28;20046;-63
2021/05/17 01:02:13;;;;;;;18.85;7.78;;;8.60;99.90;;;;;;5006470;28;20058;-63
2021/05/17 01:04:39;;;;;;;16.92;7.05;;;8.60;99.90;;;;;;5006411;28;20053;-63
2021/05/17 01:07:05;;;;;;;16.95;6.63;;;8.60;99.90;;;;;;5005470;28;20053;-63
2021/05/17 01:09:32;;;;;;;14.88;6.32;;;8.70;99.90;;;;;;5005968;28;20101;-62
2021/05/17 01:11:58;;;;;;;18.03;7.90;;;8.70;99.90;;;;;;5006066;28;20108;-63
2021/05/17 01:14:25;;;;;;;11.30;5.70;;;8.80;99.90;;;;;;5006366;28;20554;-63
2021/05/17 01:16:55;;;;;;;13.70;6.00;;;8.90;99.90;;;;;;5005580;28;20039;-63
2021/05/17 01:19:40;;;;;;;9.02;5.70;;;9.00;99.90;;;;;;5005775;28;20052;-63
2021/05/17 01:22:10;;;;;;;12.50;5.45;;;9.00;99.90;;;;;;5005445;28;20054;-63
2021/05/17 01:24:40;;;;;;;11.70;5.10;;;9.00;99.90;;;;;;4992396;28;20042;-63
2021/05/17 01:27:06;;;;;;;9.10;4.72;;;9.10;99.90;;;;;;4998534;28;20371;-63
2021/05/17 01:29:32;;;;;;;9.13;5.22;;;9.30;99.90;;;;;;5005856;28;20054;-62
2021/05/17 01:32:00;;;;;;;7.88;5.43;;;9.30;99.90;;;;;;5004921;28;20038;-63
2021/05/17 01:34:27;;;;;;;9.98;5.38;;;9.40;99.90;;;;;;5005280;28;20074;-63
2021/05/17 01:36:53;;;;;;;7.95;5.43;;;9.50;99.90;;;;;;5005890;28;20050;-63
2021/05/17 01:39:23;;;;;;;7.90;4.60;;;9.60;99.90;;;;;;5005251;28;20074;-63
2021/05/17 01:41:53;;;;;;;7.95;4.65;;;10.00;99.90;;;;;;4996572;28;20039;-63
2021/05/17 01:44:23;;;;;;;11.35;4.70;;;9.70;99.90;;;;;;5005334;28;20050;-62
2021/05/17 01:46:50;;;;;;;9.10;4.25;;;9.70;99.90;;;;;;5004503;28;20049;-63
2021/05/17 01:49:17;;;;;;;7.13;4.97;;;9.70;99.90;;;;;;4989275;28;20050;-63
2021/05/17 01:51:45;;;;;;;7.72;4.80;;;9.70;99.90;;;;;;4998692;28;20065;-63
2021/05/17 01:54:11;;;;;;;8.57;4.50;;;9.70;99.90;;;;;;5005134;28;20514;-63
2021/05/17 01:56:39;;;;;;;7.80;4.47;;;9.70;99.90;;;;;;5005380;28;20096;-63
2021/05/17 01:59:06;;;;;;;8.98;4.38;;;9.70;99.90;;;;;;5003620;28;20061;-62
2021/05/17 02:01:32;;;;;;;10.43;4.70;;;9.70;99.90;;;;;;4999982;28;20101;-62
2021/05/17 02:03:58;;;;;;;6.22;4.70;;;9.70;99.90;;;;;;5000569;28;21522;-63
2021/05/17 02:06:24;;;;;;;6.97;4.47;;;9.60;99.90;;;;;;5021058;28;20077;-64
2021/05/17 02:08:51;;;;;;;9.13;4.25;;;9.60;99.90;;;;;;4990284;28;20410;-63
2021/05/17 02:11:23;;;;;;;6.80;4.07;;;9.50;99.90;;;;;;5003130;28;20050;-63
2021/05/17 02:13:49;;;;;;;11.38;5.03;;;9.50;99.90;;;;;;5002412;28;20482;-63
2021/05/17 02:16:16;;;;;;;5.60;3.55;;;9.50;99.90;;;;;;4996272;28;20048;-63
2021/05/17 02:18:44;;;;;;;7.13;4.20;;;9.40;99.90;;;;;;5005034;28;20125;-62
2021/05/17 02:21:12;;;;;;;5.22;3.92;;;9.30;99.90;;;;;;4994609;28;21613;-63
2021/05/17 02:23:38;;;;;;;6.47;4.40;;;9.40;99.90;;;;;;5002512;28;20049;-62
2021/05/17 02:26:05;;;;;;;6.20;3.30;;;9.40;99.90;;;;;;4993906;28;20474;-62
2021/05/17 02:28:31;;;;;;;5.43;3.67;;;9.30;99.90;;;;;;5000594;28;20470;-62
2021/05/17 02:30:57;;;;;;;7.25;3.97;;;9.30;99.90;;;;;;5004379;28;20054;-64
2021/05/17 02:33:23;;;;;;;6.43;3.85;;;9.30;99.90;;;;;;5004482;28;20042;-62
2021/05/17 02:35:49;;;;;;;6.05;3.58;;;9.30;99.90;;;;;;5004441;28;20046;-62
2021/05/17 02:38:15;;;;;;;6.38;3.50;;;9.30;99.90;;;;;;5004503;28;20050;-62
2021/05/17 02:40:41;;;;;;;7.75;3.88;;;9.30;99.90;;;;;;5002338;28;20078;-62
2021/05/17 02:43:09;;;;;;;9.65;4.03;;;9.30;99.90;;;;;;5004361;28;20057;-63
2021/05/17 02:45:36;;;;;;;3.75;3.17;;;9.40;99.90;;;;;;4993274;28;20380;-62
2021/05/17 02:48:04;;;;;;;4.28;2.97;;;9.40;99.90;;;;;;4997008;28;20034;-63
2021/05/17 02:50:38;;;;;;;6.32;3.03;;;9.40;99.90;;;;;;5003791;28;20107;-63
2021/05/17 02:53:32;;;;;;;6.00;2.92;;;9.40;99.90;;;;;;5004095;28;20065;-62
2021/05/17 02:56:08;;;;;;;6.30;3.40;;;9.40;99.90;;;;;;5004244;28;20042;-63
2021/05/17 02:58:37;;;;;;;7.22;3.88;;;9.40;99.90;;;;;;5003244;28;20057;-62
2021/05/17 03:01:14;;;;;;;8.55;4.40;;;9.40;99.90;;;;;;4991269;28;20077;-63
2021/05/17 03:03:51;;;;;;;11.07;4.70;;;9.40;99.90;;;;;;5004242;28;20038;-63
2021/05/17 03:06:34;;;;;;;6.35;5.07;;;9.50;99.90;;;;;;4998552;28;20047;-63
2021/05/17 03:09:03;;;;;;;8.55;5.47;;;9.60;99.90;;;;;;5003446;28;20046;-63
2021/05/17 03:11:29;;;;;;;10.35;6.80;;;9.60;99.90;;;;;;5004136;28;20053;-63
2021/05/17 03:13:57;;;;;;;10.90;7.38;;;9.60;99.90;;;;;;5000274;28;20462;-63
2021/05/17 03:16:26;;;;;;;12.23;7.07;;;9.70;99.90;;;;;;5003772;28;20301;-63
2021/05/17 03:18:56;;;;;;;14.52;8.30;;;9.60;99.90;;;;;;5003686;28;20050;-63
2021/05/17 03:21:27;;;;;;;12.32;8.45;;;9.60;99.90;;;;;;5003978;28;20108;-62
2021/05/17 03:23:54;;;;;;;11.02;8.75;;;9.70;99.90;;;;;;4995141;28;20034;-63
2021/05/17 03:26:21;;;;;;;16.38;9.40;;;9.70;99.90;;;;;;5002890;28;20146;-63
2021/05/17 03:28:47;;;;;;;13.20;9.25;;;9.70;99.90;;;;;;5003763;28;20050;-62
2021/05/17 03:31:14;;;;;;;15.32;9.15;;;9.70;99.90;;;;;;5003032;28;20109;-62
2021/05/17 03:33:40;;;;;;;16.25;9.93;;;9.60;99.90;;;;;;5003362;28;20042;-62
2021/05/17 03:36:06;;;;;;;16.17;10.07;;;9.70;99.90;;;;;;5003052;28;20046;-63
2021/05/17 03:38:33;;;;;;;14.05;9.70;;;9.60;99.90;;;;;;4995624;28;20054;-62
2021/05/17 03:40:58;;;;;;;13.15;9.75;;;9.50;99.90;;;;;;5003846;28;20038;-62
2021/05/17 03:43:24;;;;;;;17.67;10.13;;;9.60;99.90;;;;;;5002775;28;20069;-62
2021/05/17 03:45:50;;;;;;;18.38;11.40;;;9.50;99.90;;;;;;5002704;28;20097;-62
2021/05/17 03:48:16;;;;;;;17.60;11.23;;;9.50;99.90;;;;;;4999279;28;20070;-63
2021/05/17 03:50:42;;;;;;;13.20;9.82;;;9.40;99.90;;;;;;5000574;28;20050;-61
2021/05/17 03:53:08;;;;;;;16.52;10.80;;;9.40;99.90;;;;;;5000013;28;20047;-62
2021/05/17 03:55:34;;;;;;;17.75;11.35;;;9.40;99.90;;;;;;4997545;28;20050;-62
2021/05/17 03:58:00;;;;;;;18.50;11.32;;;9.40;99.90;;;;;;5001800;28;20042;-62
2021/05/17 04:00:28;;;;;;;18.98;12.88;;;9.40;99.90;;;;;;4995712;28;20057;-62
2021/05/17 04:02:54;;;;;;;22.90;12.43;;;9.30;99.90;;;;;;5001744;28;20062;-62
2021/05/17 04:15:44;;;;;;;20.98;14.02;;;9.30;99.90;;;;;;4999066;28;20047;-60
2021/05/17 04:18:11;;;;;;;20.85;13.95;;;9.30;99.90;;;;;;5001152;28;20054;-60
2021/05/17 04:20:37;;;;;;;20.90;14.90;;;9.30;99.90;;;;;;4995072;28;20074;-61
2021/05/17 04:23:03;;;;;;;19.67;12.88;;;9.30;99.90;;;;;;5001680;28;20038;-60
2021/05/17 04:25:29;;;;;;;21.60;13.55;;;9.30;99.90;;;;;;5001355;28;20041;-62
2021/05/17 04:27:55;;;;;;;23.13;14.73;;;9.30;99.90;;;;;;5001351;28;20052;-60
2021/05/17 04:30:21;;;;;;;21.88;15.10;;;9.40;99.90;;;;;;5002360;28;20046;-62
2021/05/17 04:32:47;;;;;;;25.50;15.40;;;9.40;99.90;;;;;;5005638;28;20467;-61
2021/05/17 04:35:13;;;;;;;19.45;15.65;;;9.40;99.90;;;;;;5006000;28;20058;-60
2021/05/17 04:37:39;;;;;;;21.50;15.30;;;9.40;99.90;;;;;;5006003;28;20042;-60
2021/05/17 04:40:07;;;;;;;20.85;14.68;;;9.50;99.90;;;;;;5005493;28;20319;-60
2021/05/17 04:42:33;;;;;;;28.35;17.30;;;9.50;99.90;;;;;;5006413;28;20046;-60
2021/05/17 04:44:59;;;;;;;20.00;14.18;;;9.60;99.90;;;;;;5005857;28;20112;-61
2021/05/17 04:47:25;;;;;;;21.92;14.15;;;9.60;99.90;;;;;;5005985;28;20156;-61
2021/05/17 04:49:51;;;;;;;23.65;14.70;;;9.60;99.90;;;;;;5003157;28;20042;-61
2021/05/17 04:52:17;;;;;;;25.60;16.52;;;9.60;99.90;;;;;;5005195;28;20054;-61
2021/05/17 04:54:44;;;;;;;18.95;15.07;;;9.60;99.90;;;;;;5005517;28;20112;-60
2021/05/17 04:57:10;;;;;;;23.17;14.93;;;9.60;99.90;;;;;;5004937;28;20042;-61
2021/05/17 04:59:37;;;;;;;26.50;15.88;;;9.70;99.90;;;;;;5001899;28;20129;-61
2021/05/17 05:02:04;;;;;;;21.23;15.02;;;9.70;99.90;;;;;;5006095;28;20054;-62
2021/05/17 05:04:30;;;;;;;20.65;13.65;;;9.80;99.90;;;;;;5005141;28;20042;-61
2021/05/17 05:06:57;;;;;;;27.17;15.40;;;9.80;99.90;;;;;;5005860;28;20046;-63
2021/05/17 05:09:23;;;;;;;23.35;16.00;;;9.80;99.90;;;;;;5005230;28;20042;-62
2021/05/17 05:11:48;;;;;;;18.20;14.13;;;9.80;99.90;;;;;;5006003;28;20042;-61
2021/05/17 05:14:14;;;;;;;20.63;14.70;;;9.80;99.90;;;;;;5006095;28;20070;-62
2021/05/17 05:16:40;;;;;;;17.27;14.15;;;9.80;99.90;;;;;;5005740;28;20038;-61
2021/05/17 05:19:05;;;;;;;24.08;15.18;;;9.80;99.90;;;;;;5001561;28;20086;-61
2021/05/17 05:21:34;;;;;;;22.05;13.93;;;9.90;99.90;;;;;;5006600;28;20050;-61
2021/05/17 05:24:00;;;;;;;25.75;15.40;;;9.90;99.90;;;;;;5005640;28;20046;-61
2021/05/17 05:34:02;;;;;;;20.00;12.82;;;9.90;99.90;;;;;;5005431;28;20090;-61
2021/05/17 05:36:27;;;;;;;20.88;13.70;;;9.90;99.90;;;;;;5005573;28;20089;-61
2021/05/17 05:38:54;;;;;;;22.52;13.77;;;9.90;99.90;;;;;;5003991;28;20066;-61
2021/05/17 05:41:19;;;;;;;24.65;13.38;;;9.90;99.90;;;;;;5005020;28;20052;-62
2021/05/17 05:43:45;;;;;;;19.65;12.82;;;9.90;99.90;;;;;;5003259;28;20049;-61
2021/05/17 05:46:11;;;;;;;18.17;13.05;;;9.90;99.90;;;;;;5003047;28;20141;-61
2021/05/17 05:48:47;;;;;;;21.88;13.18;;;9.90;99.90;;;;;;5005258;28;20069;-61
2021/05/17 05:51:22;;;;;;;23.70;13.93;;;9.90;99.90;;;;;;5000685;28;20097;-61
2021/05/17 05:53:49;;;;;;;23.85;13.50;;;9.90;99.90;;;;;;5004053;28;20502;-61
2021/05/17 05:56:15;;;;;;;20.30;14.20;;;9.80;99.90;;;;;;4990733;28;20042;-61
2021/05/17 05:58:46;;;;;;;20.67;13.73;;;9.80;99.90;;;;;;4992961;28;20109;-61
2021/05/17 06:01:12;;;;;;;22.70;14.52;;;9.80;99.90;;;;;;4999806;28;20054;-61
2021/05/17 06:03:38;;;;;;;21.75;13.52;;;9.80;99.90;;;;;;4994048;28;20042;-62
2021/05/17 06:06:05;;;;;;;21.35;13.98;;;9.90;99.90;;;;;;5004934;28;20050;-60
2021/05/17 06:08:33;;;;;;;21.58;14.98;;;9.90;99.90;;;;;;5003409;28;20070;-61
2021/05/17 06:11:00;;;;;;;22.02;14.20;;;10.00;99.90;;;;;;5019894;28;20058;-62
2021/05/17 06:13:26;;;;;;;16.55;11.52;;;10.10;99.90;;;;;;5001894;28;20234;-61
2021/05/17 06:15:52;;;;;;;18.70;11.73;;;10.20;99.90;;;;;;5003768;28;20499;-61
2021/05/17 06:18:18;;;;;;;15.07;11.30;;;10.40;99.90;;;;;;5004435;28;20073;-61
2021/05/17 06:20:44;;;;;;;17.33;12.10;;;10.40;99.90;;;;;;4999896;28;20054;-61
2021/05/17 06:23:13;;;;;;;17.38;11.18;;;10.50;99.90;;;;;;4994799;28;20057;-61
2021/05/17 06:25:40;;;;;;;13.93;11.65;;;10.50;99.90;;;;;;5001419;28;20094;-62
2021/05/17 06:28:07;;;;;;;17.83;12.20;;;10.50;99.90;;;;;;4998615;28;20102;-62
2021/05/17 06:30:42;;;;;;;15.48;11.57;;;10.60;99.90;;;;;;4999812;28;20043;-61
2021/05/17 06:33:08;;;;;;;14.20;11.02;;;10.70;99.90;;;;;;5001832;28;20053;-63
2021/05/17 06:35:43;;;;;;;17.95;12.43;;;10.70;99.90;;;;;;5003199;28;20042;-61
2021/05/17 06:38:09;;;;;;;14.15;11.43;;;10.70;99.90;;;;;;5004047;28;20042;-61
2021/05/17 06:40:35;;;;;;;18.55;12.05;;;10.80;99.90;;;;;;5000277;28;20072;-61
2021/05/17 06:43:01;;;;;;;13.43;11.60;;;10.80;99.90;;;;;;5004140;28;21124;-62
2021/05/17 06:45:28;;;;;;;15.15;11.70;;;10.90;99.90;;;;;;5002668;28;20069;-62
2021/05/17 06:47:54;;;;;;;11.80;10.13;;;10.90;99.90;;;;;;5004596;28;20058;-61
2021/05/17 06:50:20;;;;;;;17.17;11.10;;;10.90;99.90;;;;;;5002291;28;20042;-62
2021/05/17 06:52:47;;;;;;;16.52;10.55;;;10.90;99.90;;;;;;4999783;28;20145;-61
2021/05/17 06:55:16;;;;;;;16.15;10.98;;;11.00;99.90;;;;;;5002396;28;20510;-62
2021/05/17 06:57:56;;;;;;;13.98;10.48;;;11.10;99.90;;;;;;5004904;28;20074;-62
2021/05/17 07:00:29;;;;;;;15.05;11.02;;;11.10;99.90;;;;;;5003767;28;20042;-62
2021/05/17 07:03:06;;;;;;;13.13;10.07;;;11.30;99.90;;;;;;5003359;28;20070;-63
2021/05/17 07:05:36;;;;;;;16.42;11.45;;;11.50;99.90;;;;;;5000519;28;20050;-63
2021/05/17 07:13:16;;;;;;;10.73;8.73;;;11.90;99.90;;;;;;5000301;28;20050;-63
2021/05/17 07:15:43;;;;;;;11.07;8.13;;;12.10;99.90;;;;;;5018839;28;20410;-61
2021/05/17 07:18:09;;;;;;;13.30;9.60;;;12.00;99.90;;;;;;4995118;28;20049;-62
2021/05/17 07:25:57;;;;;;;;;;;11.90;99.90;;;;;;4994555;28;20065;-61
2021/05/17 07:28:24;;;;;;;11.68;9.10;;;11.90;99.90;;;;;;5004547;28;19971;-62
2021/05/17 07:30:50;;;;;;;12.60;8.52;;;12.00;99.90;;;;;;5003471;28;20050;-61
2021/05/17 07:33:16;;;;;;;10.57;7.82;;;12.10;99.90;;;;;;5003641;28;20572;-61
2021/05/17 07:35:42;;;;;;;12.60;8.38;;;12.10;99.90;;;;;;5000898;28;20056;-62
2021/05/17 07:38:08;;;;;;;11.88;8.48;;;12.20;99.90;;;;;;5001175;28;20038;-62
2021/05/17 07:40:34;;;;;;;10.98;9.00;;;12.20;99.90;;;;;;4989269;28;21205;-64
2021/05/17 07:43:00;;;;;;;13.48;8.32;;;12.10;99.90;;;;;;4994967;28;20057;-61
2021/05/17 07:45:27;;;;;;;11.68;9.00;;;12.10;99.90;;;;;;4999830;28;20117;-62
2021/05/17 07:47:53;;;;;;;13.85;9.95;;;12.20;99.90;;;;;;4997933;28;20138;-61
2021/05/17 07:50:19;;;;;;;9.93;8.32;;;12.30;99.90;;;;;;4999699;28;20102;-62
2021/05/17 07:52:45;;;;;;;10.65;8.73;;;12.40;99.90;;;;;;4996117;28;20043;-63
2021/05/17 07:55:12;;;;;;;16.08;9.80;;;12.50;99.90;;;;;;5001319;28;20050;-65
2021/05/17 07:57:38;;;;;;;12.02;9.80;;;12.60;99.90;;;;;;4999018;28;20049;-64
2021/05/17 08:00:06;;;;;;;12.20;9.80;;;12.70;99.90;;;;;;5001610;28;20050;-64
2021/05/17 08:02:32;;;;;;;11.10;9.82;;;12.70;99.90;;;;;;5016398;28;20058;-64
2021/05/17 08:04:58;;;;;;;12.75;10.13;;;12.70;99.90;;;;;;5002306;28;20073;-65
2021/05/17 08:07:24;;;;;;;15.43;10.70;;;12.70;99.90;;;;;;5002954;28;20034;-62
2021/05/17 08:09:51;;;;;;;15.65;9.80;;;12.80;99.90;;;;;;5005512;28;20534;-62
2021/05/17 08:12:18;;;;;;;;;;;12.80;99.90;;;;;;5002537;28;20043;-61
2021/05/17 08:14:44;;;;;;;14.93;11.68;;;12.60;99.90;;;;;;5003765;28;19944;-62
2021/05/17 08:17:10;;;;;;;15.98;11.73;;;12.60;99.90;;;;;;5006874;28;20137;-62
2021/05/17 08:19:36;;;;;;;15.35;12.23;;;12.50;99.90;;;;;;5004405;28;20045;-60
2021/05/17 08:22:04;;;;;;;15.98;11.88;;;12.60;99.90;;;;;;5003973;28;20042;-61
2021/05/17 08:24:30;;;;;;;20.13;12.98;;;12.70;99.90;;;;;;4999344;28;20066;-62
2021/05/17 08:26:56;;;;;;;18.10;13.90;;;12.80;99.90;;;;;;5004489;28;20431;-61
2021/05/17 08:29:22;;;;;;;18.15;13.82;;;13.00;99.90;;;;;;5007056;28;20053;-62
2021/05/17 08:31:50;;;;;;;18.25;12.98;;;13.30;99.90;;;;;;5006094;28;20106;-62
2021/05/17 08:34:17;;;;;;;15.55;13.13;;;13.20;99.90;;;;;;5006083;28;20048;-62
2021/05/17 08:36:44;;;;;;;14.45;12.20;;;13.30;99.90;;;;;;5004869;28;20069;-62
2021/05/17 08:39:10;;;;;;;14.32;11.45;;;13.20;99.90;;;;;;5003582;28;20113;-62
2021/05/17 08:41:37;;;;;;;16.30;12.70;;;13.40;99.90;;;;;;5006630;28;20498;-62
2021/05/17 08:44:11;;;;;;;13.90;10.63;;;13.60;99.90;;;;;;5006433;28;20049;-62
2021/05/17 08:46:37;;;;;;;14.77;12.02;;;13.70;99.90;;;;;;5015947;28;20509;-62
2021/05/17 08:49:03;;;;;;;14.77;11.23;;;13.80;99.90;;;;;;5006186;28;20050;-61
2021/05/17 08:51:32;;;;;;;15.88;11.05;;;14.00;99.90;;;;;;5005823;28;20056;-63
2021/05/17 08:54:01;;;;;;;15.82;11.20;;;14.10;99.90;;;;;;5002592;28;20055;-66
2021/05/17 08:56:27;;;;;;;10.15;8.23;;;14.10;99.90;;;;;;5005079;28;20082;-63
2021/05/17 08:58:59;;;;;;;14.23;9.68;;;14.00;99.90;;;;;;5004760;28;20050;-62
2021/05/17 09:01:25;;;;;;;11.77;8.90;;;13.90;99.90;;;;;;4998402;28;20058;-63
2021/05/17 09:04:06;;;;;;;14.75;9.90;;;13.80;99.90;;;;;;5007850;28;20050;-62
2021/05/17 09:06:55;;;;;;;12.77;9.20;;;14.20;99.90;;;;;;5003730;28;21064;-63
2021/05/17 09:09:36;;;;;;;12.40;10.27;;;14.50;99.90;;;;;;5002016;28;20046;-62
2021/05/17 09:12:10;;;;;;;15.02;9.88;;;14.70;99.90;;;;;;5003853;28;20050;-64
2021/05/17 09:14:41;;;;;;;10.35;8.18;;;15.20;99.90;;;;;;5003399;28;20053;-64
2021/05/17 09:17:08;;;;;;;9.90;8.25;;;15.30;99.90;;;;;;4997094;28;20062;-63
2021/05/17 09:19:37;;;;;;;12.88;9.27;;;15.30;99.90;;;;;;5001493;28;20046;-61
2021/05/17 09:22:13;;;;;;;11.25;9.60;;;15.10;99.90;;;;;;4998694;28;20046;-63
2021/05/17 09:24:47;;;;;;;11.90;9.50;;;15.20;99.90;;;;;;5005809;28;20046;-62
2021/05/17 09:27:21;;;;;;;12.10;9.02;;;15.20;99.90;;;;;;5003576;28;20038;-63
2021/05/17 09:29:50;;;;;;;12.50;10.48;;;14.80;99.90;;;;;;5003991;28;20066;-63
2021/05/17 09:32:19;;;;;;;12.15;9.18;;;14.80;99.90;;;;;;5007472;28;20045;-72
2021/05/17 09:34:46;;;;;;;12.63;8.82;;;14.50;99.90;;;;;;4999624;28;20038;-67
2021/05/17 09:37:13;;;;;;;12.15;8.70;;;14.40;99.90;;;;;;5003942;28;20088;-66
2021/05/17 09:39:49;;;;;;;12.77;9.70;;;14.20;99.90;;;;;;5005728;28;20138;-67
2021/05/17 09:42:15;;;;;;;11.52;8.82;;;14.10;99.90;;;;;;5002201;28;20046;-67
2021/05/17 09:44:45;;;;;;;10.27;8.45;;;14.10;99.90;;;;;;5002456;28;20046;-67
2021/05/17 09:47:14;;;;;;;11.30;9.07;;;14.10;99.90;;;;;;5006056;28;20061;-66
2021/05/17 09:49:49;;;;;;;13.70;9.13;;;14.10;99.90;;;;;;4998262;28;20046;-66
2021/05/17 09:52:25;;;;;;;13.00;9.68;;;14.10;99.90;;;;;;4998861;28;20035;-67
2021/05/17 09:54:56;;;;;;;11.07;8.68;;;14.20;99.90;;;;;;4998736;28;20106;-67
2021/05/17 09:57:23;;;;;;;10.05;8.15;;;14.10;99.90;;;;;;5003050;28;20050;-64
2021/05/17 09:59:51;;;;;;;8.90;8.00;;;14.00;99.90;;;;;;5001078;28;20039;-65
2021/05/17 10:02:27;;;;;;;11.25;8.57;;;14.20;99.90;;;;;;5003041;28;20109;-65
2021/05/17 10:04:52;;;;;;;11.75;8.68;;;14.50;99.90;;;;;;5000071;28;20114;-66
2021/05/17 10:07:18;;;;;;;11.48;8.50;;;14.70;99.90;;;;;;5003345;28;20061;-70
2021/05/17 10:09:44;;;;;;;11.75;8.32;;;14.90;99.90;;;;;;5003274;28;20073;-65
2021/05/17 10:12:10;;;;;;;10.60;8.00;;;15.00;99.90;;;;;;5002398;28;20038;-67
2021/05/17 10:14:37;;;;;;;13.30;8.38;;;15.10;99.90;;;;;;5004765;28;20042;-66
2021/05/17 10:17:03;;;;;;;9.50;7.43;;;15.40;99.90;;;;;;5002042;28;20054;-68
2021/05/17 10:19:29;;;;;;;10.43;7.47;;;15.50;99.90;;;;;;5002119;28;20177;-66
2021/05/17 10:21:55;;;;;;;10.15;6.75;;;15.70;99.90;;;;;;5001384;28;20047;-67
2021/05/17 10:24:20;;;;;;;9.85;7.57;;;16.00;99.90;;;;;;5000491;28;20069;-67
2021/05/17 10:26:48;;;;;;;9.60;7.13;;;16.10;99.90;;;;;;5002554;28;20518;-70
2021/05/17 10:29:14;;;;;;;8.45;6.40;;;16.20;99.90;;;;;;5001560;28;20252;-67
2021/05/17 10:31:53;;;;;;;9.18;5.90;;;16.30;99.90;;;;;;5000996;28;20050;-68
2021/05/17 10:34:19;;;;;;;9.45;6.05;;;16.20;99.90;;;;;;4998364;28;20199;-67
2021/05/17 10:36:59;;;;;;;7.22;5.97;;;16.10;99.90;;;;;;5004567;28;20115;-68
2021/05/17 10:39:36;;;;;;;13.30;7.45;;;15.80;99.90;;;;;;5003008;28;20050;-68
2021/05/17 10:48:14;;;;;;;4.75;4.25;;;15.90;99.90;;;;;;5004171;28;20061;-67
2021/05/17 10:50:42;;;;;;;8.73;4.43;;;15.90;99.90;;;;;;5000903;28;20046;-66
2021/05/17 10:53:46;;;;;;;6.68;3.90;;;15.90;99.90;;;;;;5000246;28;20081;-66
2021/05/17 10:56:17;;;;;;;5.97;3.72;;;16.00;99.90;;;;;;5001328;28;20046;-67
2021/05/17 11:01:54;;;;;;;6.25;4.32;;;15.80;99.90;;;;;;5000532;28;20062;-76
2021/05/17 11:04:31;;;;;;;7.82;3.70;;;15.80;99.90;;;;;;5001064;28;20041;-74
2021/05/17 11:07:15;;;;;;;5.32;3.28;;;15.80;99.90;;;;;;4998244;28;20073;-69
2021/05/17 11:09:47;;;;;;;5.03;3.55;;;15.90;99.90;;;;;;5001920;28;20498;-64
2021/05/17 11:12:25;;;;;;;3.78;2.60;;;15.80;99.90;;;;;;5002941;28;20129;-68
2021/05/17 11:15:13;;;;;;;4.35;2.75;;;15.80;99.90;;;;;;4998824;28;20053;-66
2021/05/17 11:17:54;;;;;;;5.72;3.17;;;15.40;99.90;;;;;;5000063;28;20084;-66
2021/05/17 11:20:45;;;;;;;11.25;3.53;;;15.70;99.90;;;;;;5002811;28;20100;-68
2021/05/17 11:23:24;;;;;;;6.38;3.20;;;15.70;99.90;;;;;;4998157;28;20074;-74
2021/05/17 11:25:55;;;;;;;4.88;3.35;;;15.50;99.90;;;;;;5002729;28;20487;-65
2021/05/17 11:28:36;;;;;;;6.65;4.18;;;15.60;99.90;;;;;;5002535;28;20046;-68
2021/05/17 11:31:28;;;;;;;11.88;5.75;;;15.80;99.90;;;;;;5003014;28;20050;-70
2021/05/17 11:34:06;;;;;;;10.48;6.00;;;15.80;99.90;;;;;;5002564;28;20058;-65
2021/05/17 11:36:40;;;;;;;8.83;5.87;;;15.80;99.90;;;;;;5001447;28;20050;-64
2021/05/17 11:39:25;;;;;;;6.93;5.43;;;15.60;99.90;;;;;;5002197;28;20312;-64
2021/05/17 11:41:53;;;;;;;6.40;4.97;;;15.30;99.90;;;;;;4999881;28;20050;-64
2021/05/17 11:44:39;;;;;;;8.85;5.78;;;15.10;99.90;;;;;;5005239;28;20077;-64
2021/05/17 11:47:13;;;;;;;8.45;6.20;;;15.00;99.90;;;;;;4995310;28;20061;-65
2021/05/17 11:49:42;;;;;;;13.30;7.18;;;15.00;99.90;;;;;;4998199;28;20498;-65
2021/05/17 11:52:10;;;;;;;7.70;5.65;;;15.10;99.90;;;;;;5001576;28;20046;-65
2021/05/17 11:54:39;;;;;;;6.25;3.92;;;15.20;99.90;;;;;;5000557;28;20553;-67
2021/05/17 11:57:07;;;;;;;4.05;2.35;;;15.40;99.90;;;;;;5003000;28;20050;-66
2021/05/17 11:59:34;;;;;;;3.72;1.60;;;15.60;99.90;;;;;;5001762;28;20093;-65
2021/05/17 12:02:05;;;;;;;4.75;2.72;;;15.70;99.90;;;;;;5001487;28;20054;-64
2021/05/17 12:04:34;;;;;;;6.50;3.00;;;15.80;99.90;;;;;;4992234;28;20058;-64
2021/05/17 12:07:11;;;;;;;3.40;1.75;;;16.20;99.90;;;;;;4998033;28;20046;-65
2021/05/17 12:09:41;;;;;;;3.13;1.77;;;16.30;99.90;;;;;;4997269;28;20042;-64
2021/05/17 12:12:14;;;;;;;4.45;2.08;;;16.40;99.90;;;;;;5000898;28;20074;-65
2021/05/17 12:14:45;;;;;;;6.18;3.33;;;16.70;99.90;;;;;;4998784;28;20046;-65
2021/05/17 12:17:20;;;;;;;9.45;6.60;;;16.70;99.90;;;;;;5002159;28;20441;-64
2021/05/17 12:19:48;;;;;;;11.50;8.50;;;16.40;99.90;;;;;;5002583;28;20402;-75
2021/05/17 12:22:23;;;;;;;11.68;9.07;;;15.70;99.90;;;;;;5001762;28;20070;-65
2021/05/17 12:24:50;;;;;;;12.02;8.73;;;15.50;99.90;;;;;;4996257;28;20046;-66
2021/05/17 12:27:18;;;;;;;11.23;8.15;;;15.40;99.90;;;;;;5001396;28;20117;-66
2021/05/17 12:29:56;;;;;;;8.90;7.70;;;15.10;99.90;;;;;;5000393;28;20101;-66
2021/05/17 12:32:35;;;;;;;10.55;7.85;;;15.00;99.90;;;;;;5001711;28;20491;-66
2021/05/17 12:35:03;;;;;;;11.10;7.60;;;15.20;99.90;;;;;;5000495;28;20114;-66
2021/05/17 12:37:34;;;;;;;8.02;7.22;;;15.00;99.90;;;;;;5003264;28;20066;-66
2021/05/17 12:40:19;;;;;;;8.50;6.72;;;14.70;99.90;;;;;;5001205;28;20039;-66
2021/05/17 12:43:17;;;;;;;8.60;6.45;;;14.50;99.90;;;;;;4998841;28;20050;-66
2021/05/17 12:45:49;;;;;;;11.05;7.00;;;14.30;99.90;;;;;;5001607;28;20620;-66
2021/05/17 12:48:20;;;;;;;11.65;6.43;;;13.80;99.90;;;;;;5002416;28;20119;-66
2021/05/17 12:50:49;;;;;;;7.18;5.50;;;13.90;99.90;;;;;;5001847;28;20516;-66
2021/05/17 12:53:19;;;;;;;5.80;4.95;;;13.90;99.90;;;;;;5004541;28;20042;-67
2021/05/17 12:55:53;;;;;;;6.15;4.97;;;14.20;99.90;;;;;;5002861;28;20053;-67
2021/05/17 12:58:34;;;;;;;7.85;5.57;;;13.80;99.90;;;;;;5005912;28;20070;-67
2021/05/17 13:01:11;;;;;;;8.10;5.40;;;14.30;99.90;;;;;;5004116;28;20081;-67
2021/05/17 13:03:57;;;;;;;6.00;5.03;;;14.00;99.90;;;;;;5005644;28;20050;-67
2021/05/17 13:06:28;;;;;;;5.32;4.50;;;13.70;99.90;;;;;;5006621;28;20046;-67
2021/05/17 13:09:00;;;;;;;7.00;4.20;;;13.80;99.90;;;;;;4999391;28;20519;-67
2021/05/17 13:11:29;;;;;;;6.38;4.65;;;13.80;99.90;;;;;;5007297;28;20065;-67
2021/05/17 13:14:21;;;;;;;6.30;5.18;;;14.40;99.90;;;;;;5004652;28;20058;-67
2021/05/17 13:16:50;;;;;;;8.35;4.85;;;14.50;99.90;;;;;;5006416;28;20043;-67
2021/05/17 13:30:51;;;;;;;8.25;5.68;;;14.80;99.90;;;;;;5004495;28;20043;-67
2021/05/17 13:33:25;;;;;;;8.85;4.72;;;14.70;99.90;;;;;;5005360;28;20121;-66
2021/05/17 13:36:13;;;;;;;8.32;5.63;;;14.70;99.90;;;;;;4996686;28;20089;-67
2021/05/17 13:38:42;;;;;;;9.63;5.40;;;14.60;99.90;;;;;;4993884;28;20046;-67
2021/05/17 13:41:09;;;;;;;7.75;5.47;;;14.40;99.90;;;;;;5005505;28;20560;-66
2021/05/17 13:43:35;;;;;;;8.52;5.82;;;14.50;99.90;;;;;;5004493;28;20046;-65